sensor_id;sensor_type;location;lat;lon;timestamp;temperature;humidity
15364;DHT22;7781;49.690;6.472;2023-03-31T00:02:05;10.50;99.90
15364;DHT22;7781;49.690;6.472;2023-03-31T00:04:40;10.50;99.90
15364;DHT22;7781;49.690;6.472;2023-03-31T00:07:13;10.50;99.90
15364;DHT22;7781;49.690;6.472;2023-03-31T00:09:42;10.60;99.90
15364;DHT22;7781;49.690;6.472;2023-03-31T00:12:14;10.70;99.90
15364;DHT22;7781;49.690;6.472;2023-03-31T00:14:43;10.70;99.90
15364;DHT22;7781;49.690;6.472;2023-03-31T00:17:13;10.70;99.90
15364;DHT22;7781;49.690;6.472;2023-03-31T00:19:43;10.70;99.90
15364;DHT22;7781;49.690;6.472;2023-03-31T00:22:18;10.70;99.90
15364;DHT22;7781;49.690;6.472;2023-03-31T00:24:48;10.70;99.90
15364;DHT22;7781;49.690;6.472;2023-03-31T00:27:18;10.70;99.90
15364;DHT22;7781;49.690;6.472;2023-03-31T00:29:47;10.80;99.90
15364;DHT22;7781;49.690;6.472;2023-03-31T00:32:16;10.80;99.90
15364;DHT22;7781;49.690;6.472;2023-03-31T00:34:45;10.80;99.90
15364;DHT22;7781;49.690;6.472;2023-03-31T00:37:13;10.80;99.90
15364;DHT22;7781;49.690;6.472;2023-03-31T00:39:42;10.90;99.90
15364;DHT22;7781;49.690;6.472;2023-03-31T00:42:11;10.90;99.90
15364;DHT22;7781;49.690;6.472;2023-03-31T00:45:20;11.00;99.90
15364;DHT22;7781;49.690;6.472;2023-03-31T00:47:53;11.00;99.90
15364;DHT22;7781;49.690;6.472;2023-03-31T00:50:25;11.00;99.90
15364;DHT22;7781;49.690;6.472;2023-03-31T00:52:58;10.90;99.90
15364;DHT22;7781;49.690;6.472;2023-03-31T00:55:33;10.90;99.90
15364;DHT22;7781;49.690;6.472;2023-03-31T00:58:04;11.00;99.90
15364;DHT22;7781;49.690;6.472;2023-03-31T01:00:35;11.00;99.90
15364;DHT22;7781;49.690;6.472;2023-03-31T01:03:08;10.90;99.90
15364;DHT22;7781;49.690;6.472;2023-03-31T01:05:42;10.80;99.90
15364;DHT22;7781;49.690;6.472;2023-03-31T01:08:12;10.80;99.90
15364;DHT22;7781;49.690;6.472;2023-03-31T01:10:45;10.70;99.90
15364;DHT22;7781;49.690;6.472;2023-03-31T01:13:16;10.70;99.90
15364;DHT22;7781;49.690;6.472;2023-03-31T01:15:51;10.70;99.90
15364;DHT22;7781;49.690;6.472;2023-03-31T01:18:26;10.70;99.90
15364;DHT22;7781;49.690;6.472;2023-03-31T01:21:23;10.70;99.90
15364;DHT22;7781;49.690;6.472;2023-03-31T01:24:17;10.60;99.90
15364;DHT22;7781;49.690;6.472;2023-03-31T01:27:04;10.60;99.90
15364;DHT22;7781;49.690;6.472;2023-03-31T01:29:55;10.60;99.90
15364;DHT22;7781;49.690;6.472;2023-03-31T01:32:56;10.50;99.90
15364;DHT22;7781;49.690;6.472;2023-03-31T01:36:03;10.50;99.90
15364;DHT22;7781;49.690;6.472;2023-03-31T01:41:55;10.30;99.90
15364;DHT22;7781;49.690;6.472;2023-03-31T01:44:32;10.30;99.90
15364;DHT22;7781;49.690;6.472;2023-03-31T01:47:08;10.30;99.90
15364;DHT22;7781;49.690;6.472;2023-03-31T01:49:44;10.30;99.90
15364;DHT22;7781;49.690;6.472;2023-03-31T01:52:18;10.30;99.90
15364;DHT22;7781;49.690;6.472;2023-03-31T01:54:52;10.20;99.90
15364;DHT22;7781;49.690;6.472;2023-03-31T01:57:28;10.20;99.90
15364;DHT22;7781;49.690;6.472;2023-03-31T02:00:03;10.20;99.90
15364;DHT22;7781;49.690;6.472;2023-03-31T02:02:46;10.20;99.90
15364;DHT22;7781;49.690;6.472;2023-03-31T02:05:21;10.20;99.90
15364;DHT22;7781;49.690;6.472;2023-03-31T02:07:54;10.20;99.90
15364;DHT22;7781;49.690;6.472;2023-03-31T02:10:24;10.10;99.90
15364;DHT22;7781;49.690;6.472;2023-03-31T02:13:01;10.10;99.90
15364;DHT22;7781;49.690;6.472;2023-03-31T02:15:34;10.10;99.90
15364;DHT22;7781;49.690;6.472;2023-03-31T02:18:06;10.00;99.90
15364;DHT22;7781;49.690;6.472;2023-03-31T02:20:41;10.00;99.90
15364;DHT22;7781;49.690;6.472;2023-03-31T02:23:12;10.00;99.90
15364;DHT22;7781;49.690;6.472;2023-03-31T02:25:47;10.00;99.90
15364;DHT22;7781;49.690;6.472;2023-03-31T02:28:21;9.90;99.90
15364;DHT22;7781;49.690;6.472;2023-03-31T02:30:57;9.90;99.90
15364;DHT22;7781;49.690;6.472;2023-03-31T02:33:32;9.90;99.90
15364;DHT22;7781;49.690;6.472;2023-03-31T02:36:04;9.90;99.90
15364;DHT22;7781;49.690;6.472;2023-03-31T02:38:37;9.90;99.90
15364;DHT22;7781;49.690;6.472;2023-03-31T02:41:07;9.90;99.90
15364;DHT22;7781;49.690;6.472;2023-03-31T02:43:37;9.90;99.90
15364;DHT22;7781;49.690;6.472;2023-03-31T02:46:08;9.90;99.90
15364;DHT22;7781;49.690;6.472;2023-03-31T02:48:41;9.90;99.90
15364;DHT22;7781;49.690;6.472;2023-03-31T02:51:41;9.90;99.90
15364;DHT22;7781;49.690;6.472;2023-03-31T02:54:37;9.90;99.90
15364;DHT22;7781;49.690;6.472;2023-03-31T02:57:20;9.90;99.90
15364;DHT22;7781;49.690;6.472;2023-03-31T03:00:05;9.80;99.90
15364;DHT22;7781;49.690;6.472;2023-03-31T03:02:50;9.80;99.90
15364;DHT22;7781;49.690;6.472;2023-03-31T03:05:30;9.70;99.90
15364;DHT22;7781;49.690;6.472;2023-03-31T03:08:28;9.80;99.90
15364;DHT22;7781;49.690;6.472;2023-03-31T03:11:06;9.80;99.90
15364;DHT22;7781;49.690;6.472;2023-03-31T03:13:43;9.70;99.90
15364;DHT22;7781;49.690;6.472;2023-03-31T03:16:18;9.70;99.90
15364;DHT22;7781;49.690;6.472;2023-03-31T03:18:56;9.70;99.90
15364;DHT22;7781;49.690;6.472;2023-03-31T03:21:26;9.70;99.90
15364;DHT22;7781;49.690;6.472;2023-03-31T03:23:58;9.70;99.90
15364;DHT22;7781;49.690;6.472;2023-03-31T03:26:28;9.70;99.90
15364;DHT22;7781;49.690;6.472;2023-03-31T03:29:01;9.70;99.90
15364;DHT22;7781;49.690;6.472;2023-03-31T03:31:31;9.70;99.90
15364;DHT22;7781;49.690;6.472;2023-03-31T03:34:01;9.70;99.90
15364;DHT22;7781;49.690;6.472;2023-03-31T03:36:30;9.70;99.90
15364;DHT22;7781;49.690;6.472;2023-03-31T03:38:59;9.70;99.90
15364;DHT22;7781;49.690;6.472;2023-03-31T03:41:28;9.70;99.90
15364;DHT22;7781;49.690;6.472;2023-03-31T03:43:57;9.70;99.90
15364;DHT22;7781;49.690;6.472;2023-03-31T03:46:26;9.60;99.90
15364;DHT22;7781;49.690;6.472;2023-03-31T03:48:56;9.60;99.90
15364;DHT22;7781;49.690;6.472;2023-03-31T03:51:25;9.60;99.90
15364;DHT22;7781;49.690;6.472;2023-03-31T03:53:53;9.60;99.90
15364;DHT22;7781;49.690;6.472;2023-03-31T03:56:24;9.70;99.90
15364;DHT22;7781;49.690;6.472;2023-03-31T03:58:53;9.60;99.90
15364;DHT22;7781;49.690;6.472;2023-03-31T04:01:22;9.60;99.90
15364;DHT22;7781;49.690;6.472;2023-03-31T04:03:51;9.60;99.90
15364;DHT22;7781;49.690;6.472;2023-03-31T04:06:21;9.60;99.90
15364;DHT22;7781;49.690;6.472;2023-03-31T04:08:50;9.60;99.90
15364;DHT22;7781;49.690;6.472;2023-03-31T04:11:19;9.60;99.90
15364;DHT22;7781;49.690;6.472;2023-03-31T04:13:48;9.60;99.90
15364;DHT22;7781;49.690;6.472;2023-03-31T04:16:17;9.60;99.90
15364;DHT22;7781;49.690;6.472;2023-03-31T04:18:47;9.60;99.90
15364;DHT22;7781;49.690;6.472;2023-03-31T04:21:15;9.60;99.90
15364;DHT22;7781;49.690;6.472;2023-03-31T04:23:53;9.50;99.90
15364;DHT22;7781;49.690;6.472;2023-03-31T04:26:29;9.60;99.90
15364;DHT22;7781;49.690;6.472;2023-03-31T04:29:06;9.60;99.90
15364;DHT22;7781;49.690;6.472;2023-03-31T04:31:36;9.70;99.90
15364;DHT22;7781;49.690;6.472;2023-03-31T04:34:11;9.70;99.90
15364;DHT22;7781;49.690;6.472;2023-03-31T04:36:42;9.60;99.90
15364;DHT22;7781;49.690;6.472;2023-03-31T04:39:17;9.50;99.90
15364;DHT22;7781;49.690;6.472;2023-03-31T04:41:54;9.40;99.90
15364;DHT22;7781;49.690;6.472;2023-03-31T04:44:22;9.50;99.90
15364;DHT22;7781;49.690;6.472;2023-03-31T04:46:51;9.50;99.90
15364;DHT22;7781;49.690;6.472;2023-03-31T04:49:20;9.50;99.90
15364;DHT22;7781;49.690;6.472;2023-03-31T04:51:49;9.60;99.90
15364;DHT22;7781;49.690;6.472;2023-03-31T04:54:20;9.60;99.90
15364;DHT22;7781;49.690;6.472;2023-03-31T04:56:49;9.60;99.90
15364;DHT22;7781;49.690;6.472;2023-03-31T04:59:17;9.60;99.90
15364;DHT22;7781;49.690;6.472;2023-03-31T05:01:46;9.60;99.90
15364;DHT22;7781;49.690;6.472;2023-03-31T05:04:14;9.60;99.90
15364;DHT22;7781;49.690;6.472;2023-03-31T05:06:43;9.60;99.90
15364;DHT22;7781;49.690;6.472;2023-03-31T05:09:13;9.70;99.90
15364;DHT22;7781;49.690;6.472;2023-03-31T05:11:44;9.70;99.90
15364;DHT22;7781;49.690;6.472;2023-03-31T05:14:12;9.70;99.90
15364;DHT22;7781;49.690;6.472;2023-03-31T05:16:41;9.70;99.90
15364;DHT22;7781;49.690;6.472;2023-03-31T05:19:10;9.80;99.90
15364;DHT22;7781;49.690;6.472;2023-03-31T05:21:40;9.70;99.90
15364;DHT22;7781;49.690;6.472;2023-03-31T05:24:09;9.60;99.90
15364;DHT22;7781;49.690;6.472;2023-03-31T05:26:37;9.30;99.90
15364;DHT22;7781;49.690;6.472;2023-03-31T05:29:08;9.30;99.90
15364;DHT22;7781;49.690;6.472;2023-03-31T05:31:37;9.40;99.90
15364;DHT22;7781;49.690;6.472;2023-03-31T05:34:07;9.70;99.90
15364;DHT22;7781;49.690;6.472;2023-03-31T05:36:35;9.90;99.90
15364;DHT22;7781;49.690;6.472;2023-03-31T05:39:05;9.80;99.90
15364;DHT22;7781;49.690;6.472;2023-03-31T05:41:34;9.80;99.90
15364;DHT22;7781;49.690;6.472;2023-03-31T05:44:02;9.80;99.90
15364;DHT22;7781;49.690;6.472;2023-03-31T05:46:33;9.80;99.90
15364;DHT22;7781;49.690;6.472;2023-03-31T05:49:02;9.80;99.90
15364;DHT22;7781;49.690;6.472;2023-03-31T05:51:32;9.80;99.90
15364;DHT22;7781;49.690;6.472;2023-03-31T05:54:02;9.80;99.90
15364;DHT22;7781;49.690;6.472;2023-03-31T05:59:41;9.80;99.90
15364;DHT22;7781;49.690;6.472;2023-03-31T06:02:14;9.80;99.90
15364;DHT22;7781;49.690;6.472;2023-03-31T06:04:43;9.70;99.90
15364;DHT22;7781;49.690;6.472;2023-03-31T06:07:11;9.70;99.90
15364;DHT22;7781;49.690;6.472;2023-03-31T06:09:41;9.70;99.90
15364;DHT22;7781;49.690;6.472;2023-03-31T06:12:09;9.70;99.90
15364;DHT22;7781;49.690;6.472;2023-03-31T06:14:37;9.70;99.90
15364;DHT22;7781;49.690;6.472;2023-03-31T06:17:05;9.80;99.90
15364;DHT22;7781;49.690;6.472;2023-03-31T06:19:38;9.80;99.90
15364;DHT22;7781;49.690;6.472;2023-03-31T06:22:07;9.80;99.90
15364;DHT22;7781;49.690;6.472;2023-03-31T06:24:36;9.80;99.90
15364;DHT22;7781;49.690;6.472;2023-03-31T06:27:05;9.80;99.90
15364;DHT22;7781;49.690;6.472;2023-03-31T06:29:34;9.90;99.90
15364;DHT22;7781;49.690;6.472;2023-03-31T06:32:03;9.90;99.90
15364;DHT22;7781;49.690;6.472;2023-03-31T06:34:32;9.90;99.90
15364;DHT22;7781;49.690;6.472;2023-03-31T06:37:03;9.90;99.90
15364;DHT22;7781;49.690;6.472;2023-03-31T06:39:31;9.90;99.90
15364;DHT22;7781;49.690;6.472;2023-03-31T06:42:05;9.80;99.90
15364;DHT22;7781;49.690;6.472;2023-03-31T06:44:40;9.80;99.90
15364;DHT22;7781;49.690;6.472;2023-03-31T06:47:09;9.80;99.90
15364;DHT22;7781;49.690;6.472;2023-03-31T06:49:38;9.80;99.90
15364;DHT22;7781;49.690;6.472;2023-03-31T06:52:10;9.80;99.90
15364;DHT22;7781;49.690;6.472;2023-03-31T06:54:39;9.80;99.90
15364;DHT22;7781;49.690;6.472;2023-03-31T06:57:08;9.80;99.90
15364;DHT22;7781;49.690;6.472;2023-03-31T06:59:38;9.80;99.90
15364;DHT22;7781;49.690;6.472;2023-03-31T07:02:08;9.80;99.90
15364;DHT22;7781;49.690;6.472;2023-03-31T07:04:39;9.90;99.90
15364;DHT22;7781;49.690;6.472;2023-03-31T07:07:10;10.00;99.90
15364;DHT22;7781;49.690;6.472;2023-03-31T07:09:39;10.10;99.90
15364;DHT22;7781;49.690;6.472;2023-03-31T07:12:09;10.20;99.90
15364;DHT22;7781;49.690;6.472;2023-03-31T07:14:39;10.40;99.90
15364;DHT22;7781;49.690;6.472;2023-03-31T07:17:08;10.50;99.90
15364;DHT22;7781;49.690;6.472;2023-03-31T07:19:37;10.80;99.90
15364;DHT22;7781;49.690;6.472;2023-03-31T07:22:09;10.90;99.90
15364;DHT22;7781;49.690;6.472;2023-03-31T07:24:39;11.00;99.90
15364;DHT22;7781;49.690;6.472;2023-03-31T07:27:09;10.90;99.90
15364;DHT22;7781;49.690;6.472;2023-03-31T07:29:39;11.00;99.90
15364;DHT22;7781;49.690;6.472;2023-03-31T07:32:09;11.00;99.90
15364;DHT22;7781;49.690;6.472;2023-03-31T07:34:38;11.00;99.90
15364;DHT22;7781;49.690;6.472;2023-03-31T07:37:10;11.00;99.90
15364;DHT22;7781;49.690;6.472;2023-03-31T07:39:41;11.20;99.90
15364;DHT22;7781;49.690;6.472;2023-03-31T07:42:10;11.30;99.90
15364;DHT22;7781;49.690;6.472;2023-03-31T07:44:39;11.30;99.90
15364;DHT22;7781;49.690;6.472;2023-03-31T07:47:10;11.50;99.90
15364;DHT22;7781;49.690;6.472;2023-03-31T07:49:39;11.60;99.90
15364;DHT22;7781;49.690;6.472;2023-03-31T07:52:10;11.80;99.90
15364;DHT22;7781;49.690;6.472;2023-03-31T07:54:38;11.80;99.90
15364;DHT22;7781;49.690;6.472;2023-03-31T07:57:08;11.80;99.90
15364;DHT22;7781;49.690;6.472;2023-03-31T07:59:37;11.80;99.90
15364;DHT22;7781;49.690;6.472;2023-03-31T08:02:06;11.80;99.90
15364;DHT22;7781;49.690;6.472;2023-03-31T08:04:36;11.70;99.90
15364;DHT22;7781;49.690;6.472;2023-03-31T08:07:04;11.70;99.90
15364;DHT22;7781;49.690;6.472;2023-03-31T08:09:35;11.60;99.90
15364;DHT22;7781;49.690;6.472;2023-03-31T08:12:05;11.50;99.90
15364;DHT22;7781;49.690;6.472;2023-03-31T08:14:34;11.40;99.90
15364;DHT22;7781;49.690;6.472;2023-03-31T08:17:07;11.20;99.90
15364;DHT22;7781;49.690;6.472;2023-03-31T08:19:37;11.10;99.90
15364;DHT22;7781;49.690;6.472;2023-03-31T08:22:07;10.90;99.90
15364;DHT22;7781;49.690;6.472;2023-03-31T08:24:37;10.60;99.90
15364;DHT22;7781;49.690;6.472;2023-03-31T08:27:05;10.10;99.90
15364;DHT22;7781;49.690;6.472;2023-03-31T08:29:38;9.90;99.90
15364;DHT22;7781;49.690;6.472;2023-03-31T08:32:07;9.80;99.90
15364;DHT22;7781;49.690;6.472;2023-03-31T08:34:35;9.70;99.90
15364;DHT22;7781;49.690;6.472;2023-03-31T08:37:07;9.60;99.90
15364;DHT22;7781;49.690;6.472;2023-03-31T08:39:37;9.60;99.90
15364;DHT22;7781;49.690;6.472;2023-03-31T08:42:12;9.60;99.90
15364;DHT22;7781;49.690;6.472;2023-03-31T08:44:44;9.60;99.90
15364;DHT22;7781;49.690;6.472;2023-03-31T08:47:19;9.60;99.90
15364;DHT22;7781;49.690;6.472;2023-03-31T08:49:51;9.70;99.90
15364;DHT22;7781;49.690;6.472;2023-03-31T08:52:23;9.70;99.90
15364;DHT22;7781;49.690;6.472;2023-03-31T08:55:00;9.70;99.90
15364;DHT22;7781;49.690;6.472;2023-03-31T08:57:35;9.80;99.90
15364;DHT22;7781;49.690;6.472;2023-03-31T09:00:14;9.80;99.90
15364;DHT22;7781;49.690;6.472;2023-03-31T09:02:50;9.80;99.90
15364;DHT22;7781;49.690;6.472;2023-03-31T09:08:32;9.90;99.90
15364;DHT22;7781;49.690;6.472;2023-03-31T09:11:08;10.10;99.90
15364;DHT22;7781;49.690;6.472;2023-03-31T09:13:56;10.30;99.90
15364;DHT22;7781;49.690;6.472;2023-03-31T09:16:34;10.60;99.90
15364;DHT22;7781;49.690;6.472;2023-03-31T09:19:13;10.80;99.90
15364;DHT22;7781;49.690;6.472;2023-03-31T09:21:47;11.00;99.90
15364;DHT22;7781;49.690;6.472;2023-03-31T09:24:22;11.20;99.90
15364;DHT22;7781;49.690;6.472;2023-03-31T09:27:01;11.40;99.90
15364;DHT22;7781;49.690;6.472;2023-03-31T09:29:38;11.70;99.90
15364;DHT22;7781;49.690;6.472;2023-03-31T09:32:13;11.80;99.90
15364;DHT22;7781;49.690;6.472;2023-03-31T09:34:44;11.80;99.90
15364;DHT22;7781;49.690;6.472;2023-03-31T09:37:14;11.80;99.90
15364;DHT22;7781;49.690;6.472;2023-03-31T09:39:46;11.80;99.90
15364;DHT22;7781;49.690;6.472;2023-03-31T09:42:17;11.90;99.90
15364;DHT22;7781;49.690;6.472;2023-03-31T09:44:47;11.90;99.90
15364;DHT22;7781;49.690;6.472;2023-03-31T09:47:23;11.80;99.90
15364;DHT22;7781;49.690;6.472;2023-03-31T09:49:54;11.90;99.90
15364;DHT22;7781;49.690;6.472;2023-03-31T09:52:27;12.00;99.90
15364;DHT22;7781;49.690;6.472;2023-03-31T09:54:59;12.20;99.90
15364;DHT22;7781;49.690;6.472;2023-03-31T09:57:32;12.40;99.90
15364;DHT22;7781;49.690;6.472;2023-03-31T10:00:12;12.30;99.90
15364;DHT22;7781;49.690;6.472;2023-03-31T10:02:43;12.10;99.90
15364;DHT22;7781;49.690;6.472;2023-03-31T10:05:25;11.90;99.90
15364;DHT22;7781;49.690;6.472;2023-03-31T10:08:13;11.60;99.90
15364;DHT22;7781;49.690;6.472;2023-03-31T10:10:48;11.50;99.90
15364;DHT22;7781;49.690;6.472;2023-03-31T10:13:22;11.50;99.90
15364;DHT22;7781;49.690;6.472;2023-03-31T10:15:52;11.50;99.90
15364;DHT22;7781;49.690;6.472;2023-03-31T10:18:31;11.40;99.90
15364;DHT22;7781;49.690;6.472;2023-03-31T10:21:03;11.30;99.90
15364;DHT22;7781;49.690;6.472;2023-03-31T10:23:34;11.30;99.90
15364;DHT22;7781;49.690;6.472;2023-03-31T10:26:04;11.30;99.90
15364;DHT22;7781;49.690;6.472;2023-03-31T10:28:35;11.40;99.90
15364;DHT22;7781;49.690;6.472;2023-03-31T10:31:04;11.50;99.90
15364;DHT22;7781;49.690;6.472;2023-03-31T10:33:38;11.80;99.90
15364;DHT22;7781;49.690;6.472;2023-03-31T10:36:17;12.00;99.90
15364;DHT22;7781;49.690;6.472;2023-03-31T10:38:49;12.40;99.90
15364;DHT22;7781;49.690;6.472;2023-03-31T10:41:19;12.50;99.90
15364;DHT22;7781;49.690;6.472;2023-03-31T10:43:55;12.70;99.90
15364;DHT22;7781;49.690;6.472;2023-03-31T10:46:39;12.80;99.90
15364;DHT22;7781;49.690;6.472;2023-03-31T10:49:15;13.00;99.90
15364;DHT22;7781;49.690;6.472;2023-03-31T10:51:52;13.10;99.90
15364;DHT22;7781;49.690;6.472;2023-03-31T10:54:21;13.10;99.90
15364;DHT22;7781;49.690;6.472;2023-03-31T10:56:51;13.10;99.90
15364;DHT22;7781;49.690;6.472;2023-03-31T10:59:39;13.40;99.90
15364;DHT22;7781;49.690;6.472;2023-03-31T11:02:33;13.60;99.90
15364;DHT22;7781;49.690;6.472;2023-03-31T11:05:13;13.50;99.90
15364;DHT22;7781;49.690;6.472;2023-03-31T11:07:53;13.30;99.90
15364;DHT22;7781;49.690;6.472;2023-03-31T11:10:36;13.30;99.90
15364;DHT22;7781;49.690;6.472;2023-03-31T11:13:11;13.30;99.90
15364;DHT22;7781;49.690;6.472;2023-03-31T11:15:52;13.40;99.90
15364;DHT22;7781;49.690;6.472;2023-03-31T11:18:35;13.70;99.90
15364;DHT22;7781;49.690;6.472;2023-03-31T11:21:15;13.70;99.90
15364;DHT22;7781;49.690;6.472;2023-03-31T11:23:57;13.70;99.90
15364;DHT22;7781;49.690;6.472;2023-03-31T11:26:38;13.70;99.90
15364;DHT22;7781;49.690;6.472;2023-03-31T11:29:24;13.70;99.90
15364;DHT22;7781;49.690;6.472;2023-03-31T11:32:19;14.00;99.90
15364;DHT22;7781;49.690;6.472;2023-03-31T11:35:05;14.20;99.90
15364;DHT22;7781;49.690;6.472;2023-03-31T11:37:55;14.20;99.90
15364;DHT22;7781;49.690;6.472;2023-03-31T11:40:38;14.20;99.90
15364;DHT22;7781;49.690;6.472;2023-03-31T11:43:14;13.90;99.90
15364;DHT22;7781;49.690;6.472;2023-03-31T11:45:48;13.90;99.90
15364;DHT22;7781;49.690;6.472;2023-03-31T11:48:27;13.90;99.90
15364;DHT22;7781;49.690;6.472;2023-03-31T11:51:02;13.80;99.90
15364;DHT22;7781;49.690;6.472;2023-03-31T11:53:34;13.90;99.90
15364;DHT22;7781;49.690;6.472;2023-03-31T11:56:06;14.10;99.90
15364;DHT22;7781;49.690;6.472;2023-03-31T11:58:39;14.00;99.90
15364;DHT22;7781;49.690;6.472;2023-03-31T12:01:16;13.80;99.90
15364;DHT22;7781;49.690;6.472;2023-03-31T12:03:57;13.60;99.90
15364;DHT22;7781;49.690;6.472;2023-03-31T12:06:31;13.70;99.90
15364;DHT22;7781;49.690;6.472;2023-03-31T12:09:14;13.90;99.90
15364;DHT22;7781;49.690;6.472;2023-03-31T12:11:49;13.70;99.90
15364;DHT22;7781;49.690;6.472;2023-03-31T12:14:26;13.70;99.90
15364;DHT22;7781;49.690;6.472;2023-03-31T12:17:00;13.60;99.90
15364;DHT22;7781;49.690;6.472;2023-03-31T12:19:41;13.10;99.90
15364;DHT22;7781;49.690;6.472;2023-03-31T12:22:16;12.60;99.90
15364;DHT22;7781;49.690;6.472;2023-03-31T12:24:46;12.30;99.90
15364;DHT22;7781;49.690;6.472;2023-03-31T12:27:17;12.30;99.90
15364;DHT22;7781;49.690;6.472;2023-03-31T12:29:54;12.70;99.90
15364;DHT22;7781;49.690;6.472;2023-03-31T12:32:26;13.20;99.90
15364;DHT22;7781;49.690;6.472;2023-03-31T12:35:00;13.40;99.90
15364;DHT22;7781;49.690;6.472;2023-03-31T12:37:50;13.30;99.90
15364;DHT22;7781;49.690;6.472;2023-03-31T12:40:31;13.60;99.90
15364;DHT22;7781;49.690;6.472;2023-03-31T12:43:23;14.00;99.90
15364;DHT22;7781;49.690;6.472;2023-03-31T12:46:09;14.10;98.20
15364;DHT22;7781;49.690;6.472;2023-03-31T12:48:57;14.30;99.70
15364;DHT22;7781;49.690;6.472;2023-03-31T12:51:48;14.30;99.90
15364;DHT22;7781;49.690;6.472;2023-03-31T12:54:34;14.30;99.90
15364;DHT22;7781;49.690;6.472;2023-03-31T12:57:12;14.20;99.90
15364;DHT22;7781;49.690;6.472;2023-03-31T12:59:44;14.10;99.90
15364;DHT22;7781;49.690;6.472;2023-03-31T13:02:24;14.10;99.90
15364;DHT22;7781;49.690;6.472;2023-03-31T13:04:52;13.90;99.90
15364;DHT22;7781;49.690;6.472;2023-03-31T13:07:39;13.50;99.90
15364;DHT22;7781;49.690;6.472;2023-03-31T13:10:27;11.90;99.90
15364;DHT22;7781;49.690;6.472;2023-03-31T13:13:04;11.40;99.90
15364;DHT22;7781;49.690;6.472;2023-03-31T13:15:33;11.30;99.90
15364;DHT22;7781;49.690;6.472;2023-03-31T13:18:04;11.00;99.90
15364;DHT22;7781;49.690;6.472;2023-03-31T13:20:35;11.00;99.90
15364;DHT22;7781;49.690;6.472;2023-03-31T13:23:15;10.80;99.90
15364;DHT22;7781;49.690;6.472;2023-03-31T13:25:48;10.70;99.90
15364;DHT22;7781;49.690;6.472;2023-03-31T13:28:38;10.80;99.90
15364;DHT22;7781;49.690;6.472;2023-03-31T13:31:09;11.10;99.90
15364;DHT22;7781;49.690;6.472;2023-03-31T13:33:48;11.70;99.90
15364;DHT22;7781;49.690;6.472;2023-03-31T13:36:57;12.10;99.90
15364;DHT22;7781;49.690;6.472;2023-03-31T13:43:05;12.40;99.90
15364;DHT22;7781;49.690;6.472;2023-03-31T13:45:49;12.50;99.90
15364;DHT22;7781;49.690;6.472;2023-03-31T13:48:38;12.60;99.90
15364;DHT22;7781;49.690;6.472;2023-03-31T13:51:25;12.80;99.90
15364;DHT22;7781;49.690;6.472;2023-03-31T14:00:29;13.00;99.90
15364;DHT22;7781;49.690;6.472;2023-03-31T14:03:28;13.00;99.90
15364;DHT22;7781;49.690;6.472;2023-03-31T14:06:02;13.00;99.90
15364;DHT22;7781;49.690;6.472;2023-03-31T14:08:41;13.00;99.90
15364;DHT22;7781;49.690;6.472;2023-03-31T14:11:19;13.20;99.90
15364;DHT22;7781;49.690;6.472;2023-03-31T14:14:01;13.40;99.90
15364;DHT22;7781;49.690;6.472;2023-03-31T14:16:34;13.50;99.90
15364;DHT22;7781;49.690;6.472;2023-03-31T14:19:16;13.60;99.90
15364;DHT22;7781;49.690;6.472;2023-03-31T14:21:52;13.50;99.90
15364;DHT22;7781;49.690;6.472;2023-03-31T14:24:27;13.50;99.90
15364;DHT22;7781;49.690;6.472;2023-03-31T14:27:05;13.50;99.90
15364;DHT22;7781;49.690;6.472;2023-03-31T14:29:45;13.30;99.90
15364;DHT22;7781;49.690;6.472;2023-03-31T14:32:25;12.90;99.90
15364;DHT22;7781;49.690;6.472;2023-03-31T14:35:20;12.60;99.90
15364;DHT22;7781;49.690;6.472;2023-03-31T14:37:55;12.20;99.90
15364;DHT22;7781;49.690;6.472;2023-03-31T14:40:24;11.80;99.90
15364;DHT22;7781;49.690;6.472;2023-03-31T14:42:55;11.60;99.90
15364;DHT22;7781;49.690;6.472;2023-03-31T14:45:30;11.60;99.90
15364;DHT22;7781;49.690;6.472;2023-03-31T14:48:07;11.70;99.90
15364;DHT22;7781;49.690;6.472;2023-03-31T14:50:42;11.70;99.90
15364;DHT22;7781;49.690;6.472;2023-03-31T14:53:18;11.70;99.90
15364;DHT22;7781;49.690;6.472;2023-03-31T14:55:47;11.70;99.90
15364;DHT22;7781;49.690;6.472;2023-03-31T14:58:28;11.90;99.90
15364;DHT22;7781;49.690;6.472;2023-03-31T15:00:59;12.10;99.90
15364;DHT22;7781;49.690;6.472;2023-03-31T15:03:30;12.10;99.90
15364;DHT22;7781;49.690;6.472;2023-03-31T15:06:00;12.30;99.90
15364;DHT22;7781;49.690;6.472;2023-03-31T15:08:32;12.40;99.90
15364;DHT22;7781;49.690;6.472;2023-03-31T15:11:05;12.40;99.90
15364;DHT22;7781;49.690;6.472;2023-03-31T15:13:41;12.40;99.90
15364;DHT22;7781;49.690;6.472;2023-03-31T15:16:37;12.30;99.90
15364;DHT22;7781;49.690;6.472;2023-03-31T15:19:15;12.30;99.90
15364;DHT22;7781;49.690;6.472;2023-03-31T15:21:45;12.30;99.90
15364;DHT22;7781;49.690;6.472;2023-03-31T15:24:13;12.20;99.90
15364;DHT22;7781;49.690;6.472;2023-03-31T15:26:45;12.20;99.90
15364;DHT22;7781;49.690;6.472;2023-03-31T15:29:21;12.30;99.90
15364;DHT22;7781;49.690;6.472;2023-03-31T15:31:57;12.30;99.90
15364;DHT22;7781;49.690;6.472;2023-03-31T15:34:29;12.20;99.90
15364;DHT22;7781;49.690;6.472;2023-03-31T15:37:01;12.10;99.90
15364;DHT22;7781;49.690;6.472;2023-03-31T15:39:31;12.00;99.90
15364;DHT22;7781;49.690;6.472;2023-03-31T15:42:04;11.80;99.90
15364;DHT22;7781;49.690;6.472;2023-03-31T15:44:42;11.80;99.90
15364;DHT22;7781;49.690;6.472;2023-03-31T15:47:17;11.80;99.90
15364;DHT22;7781;49.690;6.472;2023-03-31T15:49:52;11.80;99.90
15364;DHT22;7781;49.690;6.472;2023-03-31T15:52:35;11.90;99.90
15364;DHT22;7781;49.690;6.472;2023-03-31T15:55:23;12.00;99.90
15364;DHT22;7781;49.690;6.472;2023-03-31T15:57:57;11.90;99.90
15364;DHT22;7781;49.690;6.472;2023-03-31T16:00:44;11.90;99.90
15364;DHT22;7781;49.690;6.472;2023-03-31T16:03:16;11.90;99.90
15364;DHT22;7781;49.690;6.472;2023-03-31T16:05:52;11.90;99.90
15364;DHT22;7781;49.690;6.472;2023-03-31T16:08:24;11.80;99.90
15364;DHT22;7781;49.690;6.472;2023-03-31T16:10:57;11.80;99.90
15364;DHT22;7781;49.690;6.472;2023-03-31T16:13:27;11.80;99.90
15364;DHT22;7781;49.690;6.472;2023-03-31T16:15:58;11.80;99.90
15364;DHT22;7781;49.690;6.472;2023-03-31T16:18:32;11.80;99.90
15364;DHT22;7781;49.690;6.472;2023-03-31T16:21:03;11.80;99.90
15364;DHT22;7781;49.690;6.472;2023-03-31T16:23:35;11.90;99.90
15364;DHT22;7781;49.690;6.472;2023-03-31T16:26:08;11.90;99.90
15364;DHT22;7781;49.690;6.472;2023-03-31T16:28:37;11.90;99.90
15364;DHT22;7781;49.690;6.472;2023-03-31T16:31:27;11.90;99.90
15364;DHT22;7781;49.690;6.472;2023-03-31T16:33:59;11.80;99.90
15364;DHT22;7781;49.690;6.472;2023-03-31T16:36:28;11.80;99.90
15364;DHT22;7781;49.690;6.472;2023-03-31T16:38:57;11.80;99.90
15364;DHT22;7781;49.690;6.472;2023-03-31T16:41:28;11.80;99.90
15364;DHT22;7781;49.690;6.472;2023-03-31T16:43:58;11.70;99.90
15364;DHT22;7781;49.690;6.472;2023-03-31T16:46:27;11.60;99.90
15364;DHT22;7781;49.690;6.472;2023-03-31T16:49:01;11.50;99.90
15364;DHT22;7781;49.690;6.472;2023-03-31T16:51:29;11.50;99.90
15364;DHT22;7781;49.690;6.472;2023-03-31T16:53:58;11.50;99.90
15364;DHT22;7781;49.690;6.472;2023-03-31T16:56:29;11.50;99.90